Connexion S'enregistrer

Connexion à votre compte

Identifiant
Mot de passe
Maintenir la connexion active sur ce site

Créer un compte

Pour valider ce formulaire, vous devez remplir tous les champs.
Nom
Identifiant
Mot de passe
Répétez le mot de passe
Adresse e-mail
Répétez l'adresse e-mail

Nous contacter

 Téléphone : +33 (0)4 79 54 41 81

Coordonnées détaillées et accès : cliquez ici

 
LFLB °C
    Ferienhaus Ostsee
[source: ADDS]
METAR
LFLB 221930Z AUTO 34010KT 9999 FEW078 25/11 Q1013 =
TAF
TAF LFLB 221100Z 2212/2312 36012KT 9999 FEW050 PROB30 TEMPO 2214/2218 FEW070TCU =
SR / SS: 04:09 / 19:16 UTC (Lever/Coucher du soleil le 2018-07-22)
JSN Boot template designed by JoomlaShine.com